首页
METAR-TAF:

METAR-TAF

机场 :

巴托, 佛罗里达州, 美国

纬度: 27-57N, 经度: 081-47W, 海拔: 39米

当前天气观测

该预报发布于35分钟前的16:50 UTC
风速6节,风向
温度 33°C
湿度 49%
气压 1016 hPa
能見度: 16.1公里
散云层高于4000英尺

METAR: KBOW 241650Z 19006KT 10SM SCT040 33/21 A3000

时间: 13:25 (17:25 UTC)


TAF: 丢失

超过4000个机场的气象观测和天气预报(METAR&TAF报告)。

可查询的气象台以黄色和红色小点在地图上表示。

将鼠标移到小点上方,可查看气象台名称。

然后点击查看天气观测和预报。

如需切换地图:点击带黑十字的绿色按钮放大地图;点击带横线的绿色按钮缩小地图;或者点击绿色箭头查看邻近地区的地图。


METAR-TAF: